Time;durP1;ratioP1;P1;durP2;ratioP2;P2;SDS_P1;SDS_P2;PMS_P1;PMS_P2;Temp;Humidity;BMP_temperature;BMP_pressure;BME280_temperature;BME280_humidity;BME280_pressure;Samples;Min_cycle;Max_cycle;Signal;HPM_P1;HPM_P2
2022/01/20 00:23:07;;;;;;;25.05;16.23;;;2.40;68.50;;;;;;5081392;28;20074;-60
2022/01/20 00:26:05;;;;;;;22.27;13.23;;;2.40;67.90;;;;;;5037651;28;20065;-60
2022/01/20 00:28:43;;;;;;;22.90;15.65;;;2.40;68.00;;;;;;5092466;28;20031;-60
2022/01/20 00:34:12;;;;;;;24.77;16.10;;;2.50;68.30;;;;;;5089502;28;20115;-58
2022/01/20 00:39:24;;;;;;;24.20;13.30;;;2.50;68.40;;;;;;5084543;28;20078;-60
2022/01/20 00:41:49;;;;;;;18.60;12.35;;;2.50;68.40;;;;;;5089783;28;20059;-60
2022/01/20 00:44:15;;;;;;;19.55;12.80;;;2.50;68.40;;;;;;5093897;28;20468;-59
2022/01/20 00:46:41;;;;;;;21.25;15.75;;;2.50;68.40;;;;;;5085994;28;20093;-59
2022/01/20 00:49:06;;;;;;;29.58;18.80;;;2.50;68.50;;;;;;5085269;28;20079;-59
2022/01/20 00:51:32;;;;;;;23.60;17.15;;;2.60;68.70;;;;;;5083460;28;20074;-59
2022/01/20 00:53:57;;;;;;;22.10;16.15;;;2.50;68.60;;;;;;5094096;28;20080;-59
2022/01/20 00:56:23;;;;;;;23.65;16.55;;;2.60;68.50;;;;;;5078407;28;20028;-60
2022/01/20 00:58:49;;;;;;;22.45;14.57;;;2.60;68.70;;;;;;5089862;28;20096;-60
2022/01/20 01:01:14;;;;;;;24.05;13.45;;;2.50;68.60;;;;;;5084349;28;20048;-60
2022/01/20 01:03:40;;;;;;;24.60;14.48;;;2.50;68.60;;;;;;5084362;28;20078;-60
2022/01/20 01:08:50;;;;;;;19.40;12.63;;;2.60;68.70;;;;;;5092097;28;20080;-60
2022/01/20 01:11:15;;;;;;;25.63;15.73;;;2.60;68.80;;;;;;5094300;28;20106;-60
2022/01/20 01:13:41;;;;;;;26.08;17.98;;;2.60;68.80;;;;;;5092641;28;20032;-60
2022/01/20 01:16:10;;;;;;;24.10;15.65;;;2.60;68.80;;;;;;5092163;28;20020;-60
2022/01/20 01:24:18;;;;;;;21.88;15.50;;;2.60;68.80;;;;;;5053078;28;20071;-60
2022/01/20 01:26:43;;;;;;;20.52;13.10;;;2.60;68.70;;;;;;5091514;28;20090;-60
2022/01/20 01:29:31;;;;;;;21.38;13.68;;;2.60;68.50;;;;;;5095128;28;20099;-60
2022/01/20 01:31:54;;;;;;;26.02;12.38;;;2.70;68.60;;;;;;5080325;28;20063;-60
2022/01/20 01:34:22;;;;;;;18.35;14.27;;;2.70;68.50;;;;;;5087659;28;20468;-60
2022/01/20 01:37:04;;;;;;;20.02;13.43;;;2.80;68.50;;;;;;5090326;28;20456;-60
2022/01/20 01:39:31;;;;;;;18.58;11.07;;;2.80;68.30;;;;;;5088154;28;20023;-59
2022/01/20 01:41:58;;;;;;;20.02;11.80;;;2.80;68.10;;;;;;5090125;28;20035;-60
2022/01/20 01:44:28;;;;;;;18.95;11.02;;;2.80;68.20;;;;;;5095083;28;20475;-59
2022/01/20 01:46:56;;;;;;;19.48;11.27;;;2.80;68.30;;;;;;5097363;28;20032;-60
2022/01/20 01:49:22;;;;;;;20.52;15.13;;;2.80;68.40;;;;;;5096331;28;20024;-60
2022/01/20 01:51:49;;;;;;;17.90;11.95;;;2.90;68.40;;;;;;5095882;28;20477;-59
2022/01/20 01:54:16;;;;;;;15.77;12.52;;;2.80;68.30;;;;;;5085387;28;20078;-60
2022/01/20 01:56:43;;;;;;;19.15;14.57;;;2.80;68.30;;;;;;5080395;28;20383;-59
2022/01/20 01:59:09;;;;;;;15.38;10.05;;;2.80;68.30;;;;;;5094270;28;20028;-60
2022/01/20 02:01:37;;;;;;;18.58;13.77;;;2.80;68.30;;;;;;5093593;28;20028;-60
2022/01/20 02:04:17;;;;;;;19.98;12.52;;;2.80;68.50;;;;;;5090193;28;20039;-60
2022/01/20 02:17:46;;;;;;;15.38;10.05;;;2.80;68.40;;;;;;5088721;28;20027;-60
2022/01/20 02:20:21;;;;;;;14.68;9.60;;;2.80;68.30;;;;;;5088848;28;20085;-60
2022/01/20 02:22:46;;;;;;;15.77;8.93;;;2.80;68.30;;;;;;5091753;28;20032;-60
2022/01/20 02:25:22;;;;;;;13.50;8.93;;;2.80;68.30;;;;;;5096326;28;20019;-60
2022/01/20 02:27:49;;;;;;;16.85;10.52;;;2.70;68.10;;;;;;5079550;28;20055;-60
2022/01/20 02:30:19;;;;;;;18.70;10.88;;;2.70;68.20;;;;;;5087787;28;20035;-60
2022/01/20 02:32:58;;;;;;;16.20;9.35;;;2.70;68.30;;;;;;5095358;28;20032;-60
2022/01/20 02:35:27;;;;;;;16.20;9.63;;;2.80;68.20;;;;;;5095294;28;20387;-60
2022/01/20 02:38:00;;;;;;;17.65;9.38;;;2.80;68.20;;;;;;5084161;28;20110;-60
2022/01/20 02:45:36;;;;;;;14.75;11.07;;;3.00;67.90;;;;;;5083653;28;20067;-59
2022/01/20 02:48:02;;;;;;;16.80;11.52;;;3.00;68.30;;;;;;5090856;28;20024;-60
2022/01/20 02:50:27;;;;;;;17.15;9.15;;;3.00;67.60;;;;;;5092008;28;20029;-60
2022/01/20 02:52:53;;;;;;;15.18;8.95;;;3.00;67.60;;;;;;5094194;28;20048;-60
2022/01/20 02:55:19;;;;;;;16.40;11.35;;;2.90;67.50;;;;;;5096920;28;20427;-60
2022/01/20 02:57:44;;;;;;;15.73;11.27;;;2.90;67.50;;;;;;5083598;28;20035;-60
2022/01/20 03:00:10;;;;;;;16.67;9.05;;;2.90;67.40;;;;;;5089338;28;20444;-60
2022/01/20 03:02:38;;;;;;;14.10;9.13;;;2.90;67.50;;;;;;5093213;28;20161;-60
2022/01/20 03:05:04;;;;;;;19.65;13.38;;;2.90;67.70;;;;;;5096714;28;20024;-60
2022/01/20 03:07:30;;;;;;;19.05;12.32;;;2.90;67.90;;;;;;5084181;28;20024;-59
2022/01/20 03:09:55;;;;;;;16.90;10.02;;;2.90;67.70;;;;;;5097471;28;20028;-60
2022/01/20 03:12:21;;;;;;;13.13;9.35;;;2.90;67.80;;;;;;5088276;28;20107;-60
2022/01/20 03:14:47;;;;;;;14.27;10.68;;;2.90;67.80;;;;;;5088340;28;20035;-60
2022/01/20 03:17:14;;;;;;;13.93;8.63;;;2.90;67.80;;;;;;5093044;28;20028;-60
2022/01/20 03:19:39;;;;;;;16.75;10.80;;;2.90;67.80;;;;;;5090129;28;20427;-60
2022/01/20 03:22:05;;;;;;;17.08;12.52;;;2.90;67.80;;;;;;5089572;28;20037;-58
2022/01/20 03:24:31;;;;;;;14.48;8.77;;;2.90;67.60;;;;;;5092445;28;20028;-60
2022/01/20 03:26:56;;;;;;;13.32;8.50;;;2.90;67.40;;;;;;5093779;28;20102;-60
2022/01/20 03:29:22;;;;;;;17.27;11.73;;;2.90;67.50;;;;;;5085946;28;20448;-60
2022/01/20 03:31:48;;;;;;;16.70;12.00;;;2.90;67.50;;;;;;5079071;28;20032;-60
2022/01/20 03:34:13;;;;;;;17.92;11.80;;;2.90;67.30;;;;;;5080695;28;20040;-58
2022/01/20 03:36:39;;;;;;;17.40;12.00;;;2.90;67.20;;;;;;5082485;28;20063;-59
2022/01/20 03:39:05;;;;;;;16.77;9.82;;;2.90;67.30;;;;;;5083610;28;20039;-60
2022/01/20 03:41:31;;;;;;;15.52;10.02;;;2.90;67.30;;;;;;5089118;28;20020;-60
2022/01/20 03:43:57;;;;;;;13.38;8.95;;;2.90;67.40;;;;;;5093080;28;20037;-60
2022/01/20 03:46:23;;;;;;;17.02;10.02;;;2.80;67.40;;;;;;5094816;28;20101;-60
2022/01/20 03:48:51;;;;;;;14.75;11.35;;;2.80;67.50;;;;;;5086102;28;20036;-59
2022/01/20 03:51:21;;;;;;;13.88;8.32;;;2.80;67.60;;;;;;5080231;28;20029;-59
2022/01/20 03:53:51;;;;;;;13.98;8.98;;;2.80;67.60;;;;;;5084593;28;20035;-60
2022/01/20 03:56:19;;;;;;;13.90;8.20;;;2.80;67.70;;;;;;5087996;28;20046;-60
2022/01/20 03:58:45;;;;;;;14.70;10.35;;;2.70;67.70;;;;;;5087374;28;20028;-60
2022/01/20 04:01:11;;;;;;;16.35;10.68;;;2.70;67.70;;;;;;5091750;28;20114;-60
2022/01/20 04:03:37;;;;;;;16.25;11.57;;;2.70;67.80;;;;;;5094853;28;20017;-60
2022/01/20 04:06:02;;;;;;;14.27;10.88;;;2.70;67.80;;;;;;5088358;28;20027;-60
2022/01/20 04:08:36;;;;;;;14.38;9.30;;;2.70;67.70;;;;;;5095499;28;20047;-60
2022/01/20 04:11:11;;;;;;;15.10;11.68;;;2.70;67.60;;;;;;5088957;28;20155;-60
2022/01/20 04:13:37;;;;;;;14.07;10.88;;;2.70;67.90;;;;;;5090176;28;20548;-60
2022/01/20 04:16:24;;;;;;;17.98;12.02;;;2.80;67.80;;;;;;5090181;28;20060;-60
2022/01/20 04:18:53;;;;;;;12.13;7.43;;;2.80;67.90;;;;;;5092220;28;20066;-60
2022/01/20 04:21:27;;;;;;;18.63;12.15;;;2.80;67.80;;;;;;5092903;28;20075;-60
2022/01/20 04:23:54;;;;;;;17.08;12.40;;;2.70;67.80;;;;;;5096265;28;20468;-60
2022/01/20 04:26:20;;;;;;;16.52;10.20;;;2.70;67.80;;;;;;5074503;28;20043;-60
2022/01/20 04:28:45;;;;;;;19.50;12.93;;;2.70;67.80;;;;;;5095779;28;20031;-60
2022/01/20 04:31:11;;;;;;;21.05;12.20;;;2.70;67.70;;;;;;5091079;28;20407;-60
2022/01/20 04:33:37;;;;;;;15.63;10.90;;;2.70;67.80;;;;;;5088255;28;20082;-59
2022/01/20 04:36:05;;;;;;;13.48;9.85;;;2.70;67.80;;;;;;5092707;28;20414;-60
2022/01/20 04:38:31;;;;;;;16.98;11.05;;;2.70;67.80;;;;;;5094653;28;20032;-58
2022/01/20 04:40:56;;;;;;;15.65;11.18;;;2.70;67.80;;;;;;5090746;28;20648;-60
2022/01/20 04:43:23;;;;;;;13.82;10.13;;;2.60;67.60;;;;;;5089738;28;20374;-60
2022/01/20 04:45:57;;;;;;;14.45;10.18;;;2.60;67.50;;;;;;5093190;28;20056;-60
2022/01/20 04:59:06;;;;;;;13.07;9.70;;;2.50;67.30;;;;;;5081916;28;20093;-60
2022/01/20 05:01:32;;;;;;;14.75;8.18;;;2.50;67.30;;;;;;5082705;28;20111;-60
2022/01/20 05:03:58;;;;;;;12.88;7.63;;;2.40;67.20;;;;;;5093141;28;20024;-60
2022/01/20 05:06:23;;;;;;;12.13;8.57;;;2.40;67.40;;;;;;5084223;28;20020;-60
2022/01/20 05:08:52;;;;;;;13.63;9.00;;;2.40;67.50;;;;;;5081123;28;20028;-60
2022/01/20 05:11:17;;;;;;;14.13;10.57;;;2.40;67.50;;;;;;5098456;28;20039;-60
2022/01/20 05:13:43;;;;;;;17.15;12.38;;;2.40;67.50;;;;;;5097450;28;20475;-60
2022/01/20 05:16:09;;;;;;;17.40;12.98;;;2.50;67.60;;;;;;5098244;28;20063;-59
2022/01/20 05:18:35;;;;;;;13.55;9.38;;;2.50;67.50;;;;;;5100155;28;20480;-59
2022/01/20 05:21:01;;;;;;;17.75;10.43;;;2.50;67.50;;;;;;5094818;28;20050;-60
2022/01/20 05:23:27;;;;;;;14.70;9.27;;;2.50;67.60;;;;;;5096145;28;20020;-60
2022/01/20 05:25:52;;;;;;;13.65;9.60;;;2.50;67.70;;;;;;5083676;28;20020;-59
2022/01/20 05:28:18;;;;;;;17.95;12.57;;;2.50;67.50;;;;;;5095168;28;20074;-60
2022/01/20 05:30:44;;;;;;;18.83;12.95;;;2.50;67.50;;;;;;5090157;28;20036;-60
2022/01/20 05:33:10;;;;;;;19.40;13.70;;;2.50;67.50;;;;;;5092995;28;20020;-59
2022/01/20 05:35:35;;;;;;;17.67;12.50;;;2.50;67.50;;;;;;5090328;28;20020;-60
2022/01/20 05:38:01;;;;;;;18.20;10.32;;;2.50;67.50;;;;;;5098047;28;20035;-58
2022/01/20 05:40:27;;;;;;;17.88;10.80;;;2.50;67.50;;;;;;5090610;28;20038;-60
2022/01/20 05:42:54;;;;;;;22.67;14.85;;;2.40;67.40;;;;;;5097057;28;20051;-60
2022/01/20 05:45:20;;;;;;;19.20;11.05;;;2.40;67.40;;;;;;5095549;28;20045;-59
2022/01/20 05:47:47;;;;;;;23.48;14.60;;;2.40;67.40;;;;;;5093481;28;20119;-60
2022/01/20 05:50:17;;;;;;;21.88;11.70;;;2.40;67.50;;;;;;5097623;28;20031;-60
2022/01/20 05:52:43;;;;;;;22.45;11.65;;;2.30;67.30;;;;;;5092887;28;20027;-60
2022/01/20 05:55:11;;;;;;;19.73;11.40;;;2.30;67.40;;;;;;5091236;28;20534;-60
2022/01/20 05:57:37;;;;;;;21.58;15.80;;;2.30;67.50;;;;;;5097803;28;20074;-60
2022/01/20 06:00:08;;;;;;;21.02;12.73;;;2.30;67.50;;;;;;5092671;28;20016;-60
2022/01/20 06:02:36;;;;;;;17.00;12.15;;;2.30;67.40;;;;;;5087755;28;20404;-59
2022/01/20 06:05:04;;;;;;;26.50;17.48;;;2.30;67.50;;;;;;5099580;28;20054;-60
2022/01/20 06:07:29;;;;;;;24.60;14.95;;;2.30;67.50;;;;;;5088227;28;20060;-59
2022/01/20 06:09:55;;;;;;;22.65;13.25;;;2.30;67.60;;;;;;5094115;28;20023;-60
2022/01/20 06:12:21;;;;;;;25.05;13.80;;;2.30;67.80;;;;;;5091352;28;20046;-60
2022/01/20 06:14:46;;;;;;;21.40;12.57;;;2.30;67.80;;;;;;5090379;28;20016;-59
2022/01/20 06:17:12;;;;;;;21.90;11.20;;;2.30;67.60;;;;;;5079307;28;20465;-60
2022/01/20 06:19:38;;;;;;;14.27;10.02;;;2.20;67.50;;;;;;5078886;28;20036;-60
2022/01/20 06:22:04;;;;;;;21.80;12.70;;;2.20;67.50;;;;;;5086783;28;20512;-60
2022/01/20 06:24:30;;;;;;;22.98;14.98;;;2.10;67.70;;;;;;5092542;28;20036;-60
2022/01/20 06:26:55;;;;;;;24.95;15.73;;;2.10;67.80;;;;;;5092490;28;20065;-60
2022/01/20 06:29:22;;;;;;;21.50;12.65;;;2.20;67.90;;;;;;5088138;28;20059;-58
2022/01/20 06:31:48;;;;;;;24.20;18.27;;;2.10;68.00;;;;;;5086062;28;20040;-60
2022/01/20 06:34:13;;;;;;;20.10;12.65;;;2.20;68.00;;;;;;5087462;28;20029;-60
2022/01/20 06:36:39;;;;;;;20.33;11.40;;;2.20;67.90;;;;;;5089856;28;20040;-58
2022/01/20 06:39:05;;;;;;;21.67;12.70;;;2.20;67.80;;;;;;5085895;28;20036;-60
2022/01/20 06:41:35;;;;;;;19.25;12.63;;;2.10;67.80;;;;;;5082442;28;20103;-60
2022/01/20 06:44:01;;;;;;;21.53;10.17;;;2.10;67.90;;;;;;5090752;28;20028;-58
2022/01/20 06:46:26;;;;;;;18.58;11.38;;;2.10;68.50;;;;;;5076870;28;20035;-60
2022/01/20 06:48:52;;;;;;;18.80;11.65;;;2.10;68.00;;;;;;5076234;28;20025;-60
2022/01/20 06:51:19;;;;;;;26.23;16.75;;;2.10;68.30;;;;;;5078462;28;20071;-60
2022/01/20 06:53:44;;;;;;;22.40;12.45;;;2.10;68.50;;;;;;5076290;28;20519;-60
2022/01/20 06:56:10;;;;;;;18.23;11.40;;;2.20;68.40;;;;;;5075914;28;20048;-60
2022/01/20 06:58:35;;;;;;;22.50;13.48;;;2.20;68.40;;;;;;5077419;28;20115;-60
2022/01/20 07:01:01;;;;;;;20.50;12.73;;;2.20;68.50;;;;;;5070404;28;20028;-60
2022/01/20 07:03:27;;;;;;;24.42;13.43;;;2.20;68.40;;;;;;5067928;28;20111;-60
2022/01/20 07:05:52;;;;;;;26.60;19.58;;;2.30;68.40;;;;;;5051243;28;20031;-60
2022/01/20 07:08:18;;;;;;;31.63;19.80;;;2.30;68.50;;;;;;5069044;28;20038;-59
2022/01/20 07:10:44;;;;;;;22.15;14.18;;;2.40;68.30;;;;;;5073322;28;20028;-60
2022/01/20 07:13:09;;;;;;;26.70;13.57;;;2.40;68.30;;;;;;5069865;28;20047;-60
2022/01/20 07:15:35;;;;;;;22.63;13.23;;;2.40;68.10;;;;;;5071875;28;20154;-60
2022/01/20 07:18:01;;;;;;;21.83;13.07;;;2.40;68.00;;;;;;5066612;28;20118;-61
2022/01/20 07:20:26;;;;;;;30.85;19.80;;;2.40;67.90;;;;;;5071760;28;20682;-60
2022/01/20 07:22:52;;;;;;;27.77;14.10;;;2.40;68.10;;;;;;5078198;28;20507;-61
2022/01/20 07:25:18;;;;;;;26.70;12.77;;;2.50;68.10;;;;;;5075020;28;20044;-61
2022/01/20 07:27:43;;;;;;;21.60;11.95;;;2.50;68.00;;;;;;5073234;28;20039;-61
2022/01/20 07:30:10;;;;;;;19.42;11.80;;;2.50;67.90;;;;;;5076607;28;20032;-61
2022/01/20 07:32:35;;;;;;;21.08;12.02;;;2.40;67.80;;;;;;5075091;28;20983;-61
2022/01/20 07:35:01;;;;;;;22.35;13.93;;;2.40;67.70;;;;;;5071514;28;20120;-60
2022/01/20 07:37:27;;;;;;;21.98;14.32;;;2.40;67.90;;;;;;5080540;28;21752;-61
2022/01/20 07:39:53;;;;;;;25.45;15.90;;;2.40;68.00;;;;;;5075655;28;20111;-61
2022/01/20 07:42:19;;;;;;;22.98;15.82;;;2.40;68.20;;;;;;5073141;28;20024;-61
2022/01/20 07:44:44;;;;;;;20.58;12.40;;;2.50;67.90;;;;;;5069682;28;20392;-61
2022/01/20 07:47:10;;;;;;;23.58;16.80;;;2.40;67.90;;;;;;5069059;28;20103;-61
2022/01/20 07:49:36;;;;;;;25.20;15.02;;;2.50;68.00;;;;;;5075796;28;20032;-62
2022/01/20 07:52:01;;;;;;;17.58;11.60;;;2.50;67.90;;;;;;5077900;28;20475;-59
2022/01/20 07:54:27;;;;;;;20.13;14.32;;;2.50;67.90;;;;;;5075305;28;20127;-59
2022/01/20 07:56:53;;;;;;;19.80;14.30;;;2.50;67.90;;;;;;5076168;28;20032;-59
2022/01/20 07:59:18;;;;;;;27.50;15.65;;;2.60;67.80;;;;;;5075875;28;20137;-59
2022/01/20 08:01:44;;;;;;;25.38;12.57;;;2.70;67.80;;;;;;5055145;28;21524;-59
2022/01/20 08:04:10;;;;;;;20.60;12.40;;;2.70;67.70;;;;;;5075301;28;20063;-60
2022/01/20 08:06:36;;;;;;;18.92;11.15;;;2.80;67.70;;;;;;5069301;28;20077;-59
2022/01/20 08:09:01;;;;;;;16.52;10.48;;;2.80;67.60;;;;;;5068192;28;20028;-59
2022/01/20 08:11:27;;;;;;;19.08;13.05;;;2.90;68.30;;;;;;5061971;28;20040;-59
2022/01/20 08:13:53;;;;;;;18.83;13.60;;;2.90;67.60;;;;;;5067690;28;20043;-60
2022/01/20 08:16:22;;;;;;;17.48;10.20;;;3.00;67.30;;;;;;5059531;28;20130;-61
2022/01/20 08:18:48;;;;;;;21.25;14.95;;;3.00;67.10;;;;;;5063696;28;20081;-60
2022/01/20 08:21:13;;;;;;;18.42;10.13;;;3.10;67.00;;;;;;5066056;28;20058;-60
2022/01/20 08:23:39;;;;;;;15.65;9.70;;;3.10;66.90;;;;;;5065112;28;20056;-59
2022/01/20 08:26:05;;;;;;;15.73;9.93;;;3.10;66.70;;;;;;5067006;28;20033;-61
2022/01/20 08:28:30;;;;;;;19.80;12.05;;;3.00;66.70;;;;;;5060169;28;20102;-61
2022/01/20 08:30:56;;;;;;;16.75;9.38;;;3.00;66.80;;;;;;5056906;28;20051;-61
2022/01/20 08:33:22;;;;;;;18.10;12.77;;;3.10;67.00;;;;;;5057454;28;20052;-60
2022/01/20 08:35:48;;;;;;;18.23;11.38;;;3.10;66.90;;;;;;5048643;28;20039;-60
2022/01/20 08:38:14;;;;;;;15.05;9.82;;;3.10;66.90;;;;;;5072215;28;20028;-61
2022/01/20 08:40:40;;;;;;;13.32;10.10;;;3.10;66.90;;;;;;5065293;28;20032;-60
2022/01/20 08:43:06;;;;;;;18.02;11.32;;;3.10;67.00;;;;;;5064119;28;20040;-60
2022/01/20 08:45:34;;;;;;;15.07;10.57;;;3.10;66.60;;;;;;5069890;28;20062;-59
2022/01/20 08:48:00;;;;;;;19.88;12.60;;;3.20;66.50;;;;;;5074467;28;20488;-58
2022/01/20 08:50:27;;;;;;;17.80;11.65;;;3.20;66.40;;;;;;5059318;28;20748;-59
2022/01/20 08:52:53;;;;;;;16.80;10.80;;;3.20;66.30;;;;;;5078042;28;20028;-58
2022/01/20 08:55:19;;;;;;;21.83;11.18;;;3.20;66.20;;;;;;5074116;28;20101;-58
2022/01/20 08:57:46;;;;;;;19.77;13.45;;;3.20;66.40;;;;;;5074748;28;20102;-57
2022/01/20 09:00:13;;;;;;;18.92;12.32;;;3.20;66.60;;;;;;5069646;28;20048;-57
2022/01/20 09:02:39;;;;;;;21.10;10.82;;;3.20;66.60;;;;;;5076793;28;20037;-57
2022/01/20 09:05:06;;;;;;;16.10;9.35;;;3.30;66.60;;;;;;5067168;28;20034;-57
2022/01/20 09:07:31;;;;;;;16.60;11.88;;;3.30;66.40;;;;;;5075587;28;20067;-58
2022/01/20 09:10:00;;;;;;;19.30;13.13;;;3.40;66.20;;;;;;5078276;28;20059;-60
2022/01/20 09:17:42;;;;;;;16.88;12.30;;;3.40;66.20;;;;;;5074762;28;20035;-61
2022/01/20 09:20:09;;;;;;;15.07;9.05;;;3.50;66.10;;;;;;5054712;28;20107;-60
2022/01/20 09:22:34;;;;;;;13.48;8.45;;;3.50;65.80;;;;;;5058282;28;20154;-59
2022/01/20 09:25:00;;;;;;;14.20;10.13;;;3.50;66.00;;;;;;5071598;28;20035;-60
2022/01/20 09:27:26;;;;;;;16.55;12.38;;;3.50;65.90;;;;;;5062868;28;20133;-59
2022/01/20 09:29:52;;;;;;;20.58;11.70;;;3.60;65.90;;;;;;5068362;28;20052;-60
2022/01/20 09:32:20;;;;;;;17.52;10.35;;;3.70;66.00;;;;;;5065671;28;20544;-60
2022/01/20 09:34:46;;;;;;;18.23;11.05;;;3.70;66.30;;;;;;5070947;28;20042;-59
2022/01/20 09:37:12;;;;;;;20.48;11.82;;;3.70;65.70;;;;;;5058299;28;20032;-60
2022/01/20 09:39:39;;;;;;;13.95;11.27;;;3.80;65.60;;;;;;5073032;28;20021;-61
2022/01/20 09:42:06;;;;;;;18.30;13.32;;;3.80;65.50;;;;;;5072427;28;20032;-61
2022/01/20 09:44:31;;;;;;;20.38;13.40;;;3.80;65.30;;;;;;5070830;28;20055;-59
2022/01/20 09:46:57;;;;;;;15.98;10.85;;;3.90;65.40;;;;;;5066850;28;20131;-58
2022/01/20 09:49:23;;;;;;;16.60;12.45;;;3.90;65.50;;;;;;5074802;28;20075;-59
2022/01/20 09:51:49;;;;;;;18.38;11.23;;;3.90;65.20;;;;;;5068947;28;20066;-58
2022/01/20 09:54:15;;;;;;;18.50;12.30;;;3.90;64.90;;;;;;5066575;28;20051;-59
2022/01/20 09:56:44;;;;;;;16.08;10.25;;;4.00;65.20;;;;;;5063385;28;20086;-61
2022/01/20 09:59:10;;;;;;;15.30;10.88;;;4.00;65.10;;;;;;5068932;28;20043;-60
2022/01/20 10:01:42;;;;;;;17.33;11.90;;;4.00;65.10;;;;;;5065372;28;20024;-60
2022/01/20 10:04:22;;;;;;;21.08;13.05;;;4.00;64.90;;;;;;5065249;28;20102;-60
2022/01/20 10:07:09;;;;;;;20.52;14.55;;;4.00;65.00;;;;;;5065125;28;20028;-60
2022/01/20 10:09:41;;;;;;;19.73;12.32;;;4.00;65.10;;;;;;5064123;28;20028;-59
2022/01/20 10:12:09;;;;;;;17.10;12.48;;;4.00;65.00;;;;;;5066222;28;20044;-58
2022/01/20 10:14:41;;;;;;;19.17;11.50;;;3.90;65.00;;;;;;5067322;28;20126;-57
2022/01/20 10:17:21;;;;;;;15.93;11.82;;;4.00;65.10;;;;;;5073451;28;20028;-58
2022/01/20 10:19:54;;;;;;;21.00;12.85;;;4.00;65.10;;;;;;5066355;28;20144;-59
2022/01/20 10:22:23;;;;;;;19.38;14.63;;;4.00;65.00;;;;;;5066203;28;20181;-60
2022/01/20 10:25:08;;;;;;;19.23;12.65;;;3.90;65.10;;;;;;5061467;28;20056;-60
2022/01/20 10:27:45;;;;;;;20.30;12.13;;;4.00;65.20;;;;;;5065821;28;20484;-59
2022/01/20 10:30:11;;;;;;;17.25;10.90;;;4.00;64.80;;;;;;5062948;28;20122;-60
2022/01/20 10:33:03;;;;;;;20.65;14.50;;;3.90;64.90;;;;;;5064393;28;20048;-59
2022/01/20 10:35:33;;;;;;;18.33;12.10;;;3.90;64.70;;;;;;5054686;28;20040;-57
2022/01/20 10:38:12;;;;;;;22.75;14.85;;;3.80;64.60;;;;;;5069543;28;20028;-59
2022/01/20 10:40:56;;;;;;;19.25;12.60;;;3.80;64.90;;;;;;5067582;28;20052;-60
2022/01/20 10:43:27;;;;;;;23.48;15.32;;;3.80;65.10;;;;;;5075391;28;20045;-61
2022/01/20 10:46:12;;;;;;;19.48;12.90;;;3.90;65.30;;;;;;5070147;28;20103;-61
2022/01/20 10:48:39;;;;;;;17.48;11.35;;;3.90;65.10;;;;;;5064075;28;20050;-59
2022/01/20 10:51:18;;;;;;;21.48;14.18;;;3.90;65.00;;;;;;5063512;28;20395;-59
2022/01/20 10:53:44;;;;;;;20.65;12.77;;;3.90;64.90;;;;;;5068090;28;20028;-61
2022/01/20 10:56:09;;;;;;;20.15;10.82;;;3.90;64.80;;;;;;5056329;28;20121;-59
2022/01/20 10:58:35;;;;;;;17.48;12.48;;;3.90;65.00;;;;;;5052033;28;20035;-61
2022/01/20 11:01:01;;;;;;;17.83;11.07;;;3.90;64.50;;;;;;5059264;28;20032;-59
2022/01/20 11:03:28;;;;;;;18.55;12.98;;;3.90;64.50;;;;;;5065628;28;20119;-60
2022/01/20 11:05:56;;;;;;;16.67;11.25;;;3.80;64.50;;;;;;5060620;28;20043;-56
2022/01/20 11:08:22;;;;;;;18.55;11.70;;;3.80;64.40;;;;;;5045872;28;20048;-57
2022/01/20 11:10:50;;;;;;;18.63;10.63;;;3.70;64.60;;;;;;5061267;28;20025;-59
2022/01/20 11:13:17;;;;;;;20.40;14.02;;;3.70;64.60;;;;;;5051387;28;20041;-59
2022/01/20 11:15:44;;;;;;;15.05;9.95;;;3.80;64.60;;;;;;5050898;28;20032;-59
2022/01/20 11:18:10;;;;;;;15.93;12.30;;;3.70;64.50;;;;;;5053651;28;20025;-58
2022/01/20 11:20:48;;;;;;;20.90;13.43;;;3.70;64.50;;;;;;5059526;28;20040;-59
2022/01/20 11:23:15;;;;;;;13.60;8.82;;;3.80;64.10;;;;;;5063347;28;20021;-59
2022/01/20 11:25:43;;;;;;;17.05;11.50;;;3.80;64.10;;;;;;5067168;28;20037;-59
2022/01/20 11:28:12;;;;;;;16.67;10.88;;;3.80;64.10;;;;;;5065372;28;20148;-58
2022/01/20 11:30:42;;;;;;;17.40;11.82;;;3.70;63.90;;;;;;5060542;28;20028;-59
2022/01/20 11:33:10;;;;;;;15.55;11.27;;;3.70;63.90;;;;;;5052875;28;20035;-58
2022/01/20 11:35:42;;;;;;;15.68;12.05;;;3.70;63.70;;;;;;5042358;28;20043;-59
2022/01/20 11:38:09;;;;;;;;;;;3.70;63.70;;;;;;5039186;28;20079;-59
2022/01/20 11:40:46;;;;;;;17.30;10.60;;;3.60;63.50;;;;;;5057136;28;19916;-59
2022/01/20 11:43:13;;;;;;;16.42;10.02;;;3.60;63.90;;;;;;5052127;28;20027;-58
2022/01/20 11:45:46;;;;;;;14.93;9.77;;;3.60;64.00;;;;;;5058083;28;20090;-60
2022/01/20 11:48:23;;;;;;;18.20;12.60;;;3.70;64.70;;;;;;5057910;28;21151;-60
2022/01/20 11:51:02;;;;;;;19.08;13.55;;;3.70;64.10;;;;;;5053364;28;20048;-61
2022/01/20 11:53:28;;;;;;;16.98;10.40;;;3.80;64.00;;;;;;5059357;28;20404;-61
2022/01/20 11:55:54;;;;;;;16.33;12.38;;;3.80;64.10;;;;;;5067052;28;20051;-60
2022/01/20 11:58:23;;;;;;;20.13;11.75;;;3.80;64.30;;;;;;5064936;28;20036;-60
2022/01/20 12:01:04;;;;;;;17.95;12.93;;;3.90;64.60;;;;;;5062463;28;20035;-60
2022/01/20 12:03:31;;;;;;;19.42;14.68;;;3.90;64.00;;;;;;5061161;28;20028;-59
2022/01/20 12:06:08;;;;;;;15.88;11.00;;;4.00;64.00;;;;;;5067328;28;20037;-59
2022/01/20 12:08:35;;;;;;;18.25;12.48;;;4.00;63.60;;;;;;5060619;28;20032;-60
2022/01/20 12:11:08;;;;;;;18.23;12.73;;;4.00;63.20;;;;;;5063489;28;20062;-61
2022/01/20 12:13:50;;;;;;;18.42;12.30;;;4.00;63.00;;;;;;5064762;28;20050;-59
2022/01/20 12:16:20;;;;;;;16.73;11.07;;;4.00;62.70;;;;;;5061951;28;20028;-60
2022/01/20 12:18:57;;;;;;;18.13;12.13;;;4.00;62.70;;;;;;5063449;28;20063;-59
2022/01/20 12:21:24;;;;;;;16.98;10.15;;;3.90;62.60;;;;;;5057388;28;20794;-59
2022/01/20 12:23:52;;;;;;;17.58;11.27;;;3.90;62.70;;;;;;5061340;28;20032;-60
2022/01/20 12:26:20;;;;;;;16.98;12.57;;;3.90;62.90;;;;;;5053271;28;20082;-59
2022/01/20 12:28:46;;;;;;;21.52;12.02;;;3.90;62.80;;;;;;5056824;28;20788;-57
2022/01/20 12:31:13;;;;;;;18.80;13.73;;;3.90;62.60;;;;;;5057716;28;20039;-60
2022/01/20 12:33:43;;;;;;;20.95;11.82;;;4.00;62.60;;;;;;5066949;28;20036;-59
2022/01/20 12:36:17;;;;;;;16.92;12.88;;;4.00;62.50;;;;;;5065009;28;20063;-60
2022/01/20 12:38:46;;;;;;;17.75;12.82;;;4.00;62.50;;;;;;5056478;28;20037;-60
2022/01/20 12:41:13;;;;;;;14.35;11.35;;;4.00;62.30;;;;;;5055869;28;20116;-60
2022/01/20 12:43:47;;;;;;;17.58;11.18;;;4.00;62.30;;;;;;5059296;28;20485;-59
2022/01/20 12:46:20;;;;;;;14.85;10.10;;;4.00;62.50;;;;;;5065078;28;20078;-60
2022/01/20 12:49:05;;;;;;;14.63;9.82;;;4.00;62.50;;;;;;5056698;28;20051;-60
2022/01/20 12:51:34;;;;;;;14.70;10.10;;;3.90;62.60;;;;;;5062815;28;20063;-59
2022/01/20 12:54:21;;;;;;;11.60;8.95;;;4.00;62.50;;;;;;5063643;28;20165;-59
2022/01/20 12:56:49;;;;;;;11.60;8.32;;;4.00;62.40;;;;;;5061435;28;20084;-60
2022/01/20 12:59:43;;;;;;;15.73;10.93;;;3.90;62.50;;;;;;5062854;28;20031;-59
2022/01/20 13:02:24;;;;;;;19.70;11.13;;;3.90;62.40;;;;;;5054285;28;20043;-60
2022/01/20 13:04:58;;;;;;;15.45;11.63;;;3.90;62.50;;;;;;5065158;28;20032;-60
2022/01/20 13:07:24;;;;;;;13.77;9.02;;;4.00;62.70;;;;;;5066437;28;20024;-60
2022/01/20 13:10:01;;;;;;;14.55;9.85;;;3.90;62.60;;;;;;5063279;28;20043;-59
2022/01/20 13:12:39;;;;;;;13.10;8.02;;;4.00;62.40;;;;;;5061983;28;20030;-60
2022/01/20 13:15:26;;;;;;;14.02;9.05;;;4.00;62.20;;;;;;5058804;28;20038;-60
2022/01/20 13:18:20;;;;;;;13.70;8.30;;;3.90;62.40;;;;;;5059487;28;20054;-60
2022/01/20 13:20:58;;;;;;;12.43;8.23;;;3.90;62.00;;;;;;5040485;28;20040;-60
2022/01/20 13:26:03;;;;;;;14.45;8.90;;;3.90;62.10;;;;;;5060079;28;20178;-59
2022/01/20 13:28:29;;;;;;;13.73;7.43;;;3.90;62.00;;;;;;5061281;28;20036;-61
2022/01/20 13:30:54;;;;;;;15.93;9.93;;;3.90;62.00;;;;;;5064671;28;20605;-61
2022/01/20 13:33:22;;;;;;;11.75;8.85;;;3.90;61.90;;;;;;5057283;28;20051;-61
2022/01/20 13:36:03;;;;;;;12.82;9.13;;;3.90;61.80;;;;;;5051417;28;20028;-60
2022/01/20 13:38:38;;;;;;;13.25;8.73;;;3.90;61.80;;;;;;5057792;28;20036;-61
2022/01/20 13:41:08;;;;;;;17.25;8.60;;;3.80;61.80;;;;;;5062587;28;20118;-59
2022/01/20 13:46:33;;;;;;;13.75;10.15;;;3.70;62.10;;;;;;5058339;28;20110;-59
2022/01/20 13:49:18;;;;;;;16.08;11.63;;;3.60;62.30;;;;;;5068622;28;20035;-60
2022/01/20 13:51:45;;;;;;;14.50;9.43;;;3.60;62.40;;;;;;5058731;28;20056;-60
2022/01/20 13:54:11;;;;;;;16.65;11.10;;;3.60;62.50;;;;;;5059165;28;20028;-59
2022/01/20 13:56:37;;;;;;;15.65;8.70;;;3.60;62.60;;;;;;5063073;28;20040;-61
2022/01/20 13:59:04;;;;;;;20.45;12.98;;;3.50;62.60;;;;;;5048223;28;20113;-61